sensor_id;sensor_type;location;lat;lon;timestamp;pressure;altitude;pressure_sealevel;temperature;humidity
73860;BME280;62197;51.632;13.700;2023-02-14T00:01:34;102415.66;;;4.42;100.00
73860;BME280;62197;51.632;13.700;2023-02-14T00:04:00;102409.84;;;4.45;100.00
73860;BME280;62197;51.632;13.700;2023-02-14T00:06:25;102408.38;;;4.51;100.00
73860;BME280;62197;51.632;13.700;2023-02-14T00:08:51;102402.28;;;4.57;100.00
73860;BME280;62197;51.632;13.700;2023-02-14T00:11:18;102402.53;;;4.46;100.00
73860;BME280;62197;51.632;13.700;2023-02-14T00:13:44;102409.06;;;4.53;100.00
73860;BME280;62197;51.632;13.700;2023-02-14T00:16:29;102407.00;;;4.47;100.00
73860;BME280;62197;51.632;13.700;2023-02-14T00:18:55;102403.41;;;4.64;100.00
73860;BME280;62197;51.632;13.700;2023-02-14T00:21:35;102399.34;;;4.68;100.00
73860;BME280;62197;51.632;13.700;2023-02-14T00:24:02;102395.19;;;4.64;100.00
73860;BME280;62197;51.632;13.700;2023-02-14T00:26:28;102390.09;;;4.69;100.00
73860;BME280;62197;51.632;13.700;2023-02-14T00:28:53;102381.81;;;4.61;100.00
73860;BME280;62197;51.632;13.700;2023-02-14T00:31:18;102383.31;;;4.55;100.00
73860;BME280;62197;51.632;13.700;2023-02-14T00:33:44;102382.00;;;4.59;100.00
73860;BME280;62197;51.632;13.700;2023-02-14T00:36:09;102381.00;;;4.61;100.00
73860;BME280;62197;51.632;13.700;2023-02-14T00:38:35;102377.06;;;4.63;100.00
73860;BME280;62197;51.632;13.700;2023-02-14T00:41:01;102380.81;;;4.62;100.00
73860;BME280;62197;51.632;13.700;2023-02-14T00:43:27;102382.84;;;4.60;100.00
73860;BME280;62197;51.632;13.700;2023-02-14T00:45:52;102378.72;;;4.56;100.00
73860;BME280;62197;51.632;13.700;2023-02-14T00:48:17;102380.91;;;4.70;100.00
73860;BME280;62197;51.632;13.700;2023-02-14T00:50:43;102371.75;;;4.62;100.00
73860;BME280;62197;51.632;13.700;2023-02-14T00:53:10;102383.47;;;4.54;100.00
73860;BME280;62197;51.632;13.700;2023-02-14T00:55:35;102387.44;;;4.42;100.00
73860;BME280;62197;51.632;13.700;2023-02-14T00:58:00;102382.13;;;4.40;100.00
73860;BME280;62197;51.632;13.700;2023-02-14T01:00:26;102370.66;;;4.37;100.00
73860;BME280;62197;51.632;13.700;2023-02-14T01:02:51;102381.34;;;4.48;100.00
73860;BME280;62197;51.632;13.700;2023-02-14T01:05:16;102371.13;;;4.50;100.00
73860;BME280;62197;51.632;13.700;2023-02-14T01:07:42;102373.88;;;4.50;100.00
73860;BME280;62197;51.632;13.700;2023-02-14T01:10:07;102369.09;;;4.52;100.00
73860;BME280;62197;51.632;13.700;2023-02-14T01:12:32;102361.06;;;4.33;100.00
73860;BME280;62197;51.632;13.700;2023-02-14T01:14:58;102371.66;;;4.36;100.00
73860;BME280;62197;51.632;13.700;2023-02-14T01:17:23;102368.81;;;4.37;100.00
73860;BME280;62197;51.632;13.700;2023-02-14T01:19:51;102368.94;;;4.36;100.00
73860;BME280;62197;51.632;13.700;2023-02-14T01:22:16;102365.03;;;4.38;100.00
73860;BME280;62197;51.632;13.700;2023-02-14T01:24:41;102362.13;;;4.40;100.00
73860;BME280;62197;51.632;13.700;2023-02-14T01:27:07;102361.22;;;4.49;100.00
73860;BME280;62197;51.632;13.700;2023-02-14T01:29:32;102360.91;;;4.52;100.00
73860;BME280;62197;51.632;13.700;2023-02-14T01:31:57;102358.88;;;4.54;100.00
73860;BME280;62197;51.632;13.700;2023-02-14T01:34:23;102351.38;;;4.38;100.00
73860;BME280;62197;51.632;13.700;2023-02-14T01:36:48;102353.56;;;4.35;100.00
73860;BME280;62197;51.632;13.700;2023-02-14T01:39:14;102358.53;;;4.39;100.00
73860;BME280;62197;51.632;13.700;2023-02-14T01:41:41;102352.16;;;4.48;100.00
73860;BME280;62197;51.632;13.700;2023-02-14T01:46:53;102346.59;;;4.58;100.00
73860;BME280;62197;51.632;13.700;2023-02-14T01:49:33;102338.69;;;4.55;100.00
73860;BME280;62197;51.632;13.700;2023-02-14T01:52:07;102346.69;;;4.66;100.00
73860;BME280;62197;51.632;13.700;2023-02-14T01:54:37;102338.59;;;4.82;100.00
73860;BME280;62197;51.632;13.700;2023-02-14T01:57:07;102346.16;;;4.63;100.00
73860;BME280;62197;51.632;13.700;2023-02-14T01:59:38;102342.13;;;4.57;100.00
73860;BME280;62197;51.632;13.700;2023-02-14T02:02:06;102344.88;;;4.57;100.00
73860;BME280;62197;51.632;13.700;2023-02-14T02:04:32;102344.66;;;4.50;100.00
73860;BME280;62197;51.632;13.700;2023-02-14T02:07:02;102348.88;;;4.45;100.00
73860;BME280;62197;51.632;13.700;2023-02-14T02:09:46;102345.44;;;4.43;100.00
73860;BME280;62197;51.632;13.700;2023-02-14T02:12:12;102344.56;;;4.42;100.00
73860;BME280;62197;51.632;13.700;2023-02-14T02:14:38;102334.25;;;4.36;100.00
73860;BME280;62197;51.632;13.700;2023-02-14T02:25:40;102321.84;;;4.42;100.00
73860;BME280;62197;51.632;13.700;2023-02-14T02:28:25;102328.25;;;4.50;100.00
73860;BME280;62197;51.632;13.700;2023-02-14T02:33:43;102337.16;;;4.52;100.00
73860;BME280;62197;51.632;13.700;2023-02-14T02:36:19;102335.75;;;4.66;100.00
73860;BME280;62197;51.632;13.700;2023-02-14T02:42:03;102329.50;;;4.56;100.00
73860;BME280;62197;51.632;13.700;2023-02-14T02:44:43;102329.03;;;4.43;100.00
73860;BME280;62197;51.632;13.700;2023-02-14T02:47:25;102339.09;;;4.42;100.00
73860;BME280;62197;51.632;13.700;2023-02-14T02:50:09;102331.06;;;4.41;100.00
73860;BME280;62197;51.632;13.700;2023-02-14T02:53:32;102331.06;;;4.41;100.00
73860;BME280;62197;51.632;13.700;2023-02-14T02:56:08;102337.06;;;4.27;100.00
73860;BME280;62197;51.632;13.700;2023-02-14T02:59:00;102334.78;;;4.22;100.00
73860;BME280;62197;51.632;13.700;2023-02-14T03:01:32;102328.97;;;4.35;100.00
73860;BME280;62197;51.632;13.700;2023-02-14T03:04:03;102329.25;;;4.32;100.00
73860;BME280;62197;51.632;13.700;2023-02-14T03:06:50;102335.44;;;4.34;100.00
73860;BME280;62197;51.632;13.700;2023-02-14T03:14:56;102322.44;;;4.18;100.00
73860;BME280;62197;51.632;13.700;2023-02-14T03:17:36;102323.78;;;4.49;100.00
73860;BME280;62197;51.632;13.700;2023-02-14T03:20:14;102330.81;;;4.34;100.00
73860;BME280;62197;51.632;13.700;2023-02-14T03:23:08;102333.25;;;4.20;100.00
73860;BME280;62197;51.632;13.700;2023-02-14T03:25:49;102322.94;;;4.14;100.00
73860;BME280;62197;51.632;13.700;2023-02-14T03:28:36;102320.59;;;4.19;100.00
73860;BME280;62197;51.632;13.700;2023-02-14T03:34:01;102328.88;;;4.27;100.00
73860;BME280;62197;51.632;13.700;2023-02-14T03:36:54;102335.59;;;4.32;100.00
73860;BME280;62197;51.632;13.700;2023-02-14T03:42:16;102335.13;;;4.37;100.00
73860;BME280;62197;51.632;13.700;2023-02-14T03:44:44;102331.81;;;4.51;100.00
73860;BME280;62197;51.632;13.700;2023-02-14T03:47:13;102334.97;;;4.56;100.00
73860;BME280;62197;51.632;13.700;2023-02-14T03:49:55;102334.63;;;4.59;100.00
73860;BME280;62197;51.632;13.700;2023-02-14T03:52:22;102336.38;;;4.42;100.00
73860;BME280;62197;51.632;13.700;2023-02-14T03:54:51;102341.59;;;4.36;100.00
73860;BME280;62197;51.632;13.700;2023-02-14T03:57:24;102337.44;;;4.32;100.00
73860;BME280;62197;51.632;13.700;2023-02-14T03:59:50;102333.25;;;4.20;100.00
73860;BME280;62197;51.632;13.700;2023-02-14T04:02:23;102340.00;;;3.98;100.00
73860;BME280;62197;51.632;13.700;2023-02-14T04:04:51;102342.03;;;3.96;100.00
73860;BME280;62197;51.632;13.700;2023-02-14T04:07:21;102339.53;;;4.03;100.00
73860;BME280;62197;51.632;13.700;2023-02-14T04:09:47;102345.69;;;4.05;100.00
73860;BME280;62197;51.632;13.700;2023-02-14T04:12:14;102343.78;;;4.15;100.00
73860;BME280;62197;51.632;13.700;2023-02-14T04:14:40;102332.22;;;4.21;100.00
73860;BME280;62197;51.632;13.700;2023-02-14T04:17:05;102337.06;;;4.27;100.00
73860;BME280;62197;51.632;13.700;2023-02-14T04:19:49;102339.91;;;4.35;100.00
73860;BME280;62197;51.632;13.700;2023-02-14T04:22:15;102330.13;;;4.50;100.00
73860;BME280;62197;51.632;13.700;2023-02-14T04:24:41;102326.22;;;4.35;100.00
73860;BME280;62197;51.632;13.700;2023-02-14T04:27:06;102323.56;;;4.25;100.00
73860;BME280;62197;51.632;13.700;2023-02-14T04:29:39;102326.47;;;4.24;100.00
73860;BME280;62197;51.632;13.700;2023-02-14T04:32:10;102318.56;;;4.21;100.00
73860;BME280;62197;51.632;13.700;2023-02-14T04:34:36;102306.22;;;4.17;100.00
73860;BME280;62197;51.632;13.700;2023-02-14T04:37:03;102320.59;;;4.19;100.00
73860;BME280;62197;51.632;13.700;2023-02-14T04:39:28;102323.50;;;4.35;100.00
73860;BME280;62197;51.632;13.700;2023-02-14T04:41:54;102309.97;;;4.16;100.00
73860;BME280;62197;51.632;13.700;2023-02-14T04:44:19;102310.91;;;4.07;100.00
73860;BME280;62197;51.632;13.700;2023-02-14T04:46:44;102317.47;;;4.14;100.00
73860;BME280;62197;51.632;13.700;2023-02-14T04:49:09;102293.09;;;4.03;100.00
73860;BME280;62197;51.632;13.700;2023-02-14T04:51:35;102299.25;;;4.05;100.00
73860;BME280;62197;51.632;13.700;2023-02-14T04:54:00;102294.03;;;3.94;100.00
73860;BME280;62197;51.632;13.700;2023-02-14T04:56:25;102297.56;;;4.04;100.00
73860;BME280;62197;51.632;13.700;2023-02-14T04:58:52;102287.63;;;4.03;100.00
73860;BME280;62197;51.632;13.700;2023-02-14T05:01:17;102293.50;;;4.43;100.00
73860;BME280;62197;51.632;13.700;2023-02-14T05:03:42;102295.31;;;4.78;100.00
73860;BME280;62197;51.632;13.700;2023-02-14T05:06:07;102295.28;;;4.95;100.00
73860;BME280;62197;51.632;13.700;2023-02-14T05:08:33;102285.22;;;4.78;100.00
73860;BME280;62197;51.632;13.700;2023-02-14T05:10:58;102290.06;;;4.84;100.00
73860;BME280;62197;51.632;13.700;2023-02-14T05:13:23;102287.88;;;4.88;100.00
73860;BME280;62197;51.632;13.700;2023-02-14T05:15:49;102289.66;;;4.97;100.00
73860;BME280;62197;51.632;13.700;2023-02-14T05:18:14;102284.75;;;5.08;100.00
73860;BME280;62197;51.632;13.700;2023-02-14T05:20:39;102289.84;;;4.78;100.00
73860;BME280;62197;51.632;13.700;2023-02-14T05:23:04;102281.69;;;4.60;100.00
73860;BME280;62197;51.632;13.700;2023-02-14T05:25:31;102280.66;;;4.43;100.00
73860;BME280;62197;51.632;13.700;2023-02-14T05:27:56;102277.19;;;4.33;100.00
73860;BME280;62197;51.632;13.700;2023-02-14T05:30:22;102284.97;;;4.11;100.00
73860;BME280;62197;51.632;13.700;2023-02-14T05:32:51;102291.47;;;4.10;100.00
73860;BME280;62197;51.632;13.700;2023-02-14T05:35:16;102290.16;;;4.14;100.00
73860;BME280;62197;51.632;13.700;2023-02-14T05:37:42;102287.00;;;4.09;100.00
73860;BME280;62197;51.632;13.700;2023-02-14T05:40:07;102290.28;;;4.30;100.00
73860;BME280;62197;51.632;13.700;2023-02-14T05:42:33;102282.31;;;4.01;100.00
73860;BME280;62197;51.632;13.700;2023-02-14T05:44:58;102288.88;;;3.91;100.00
73860;BME280;62197;51.632;13.700;2023-02-14T05:47:24;102282.41;;;3.92;100.00
73860;BME280;62197;51.632;13.700;2023-02-14T05:49:49;102287.16;;;3.90;100.00
73860;BME280;62197;51.632;13.700;2023-02-14T05:52:14;102295.19;;;3.91;100.00
73860;BME280;62197;51.632;13.700;2023-02-14T05:54:40;102286.53;;;3.96;100.00
73860;BME280;62197;51.632;13.700;2023-02-14T05:57:05;102294.19;;;3.92;100.00
73860;BME280;62197;51.632;13.700;2023-02-14T05:59:30;102298.69;;;3.84;100.00
73860;BME280;62197;51.632;13.700;2023-02-14T06:01:56;102298.72;;;4.01;100.00
73860;BME280;62197;51.632;13.700;2023-02-14T06:04:21;102290.84;;;3.98;100.00
73860;BME280;62197;51.632;13.700;2023-02-14T06:06:46;102293.09;;;4.03;100.00
73860;BME280;62197;51.632;13.700;2023-02-14T06:09:12;102297.94;;;4.09;100.00
73860;BME280;62197;51.632;13.700;2023-02-14T06:11:37;102296.25;;;4.08;100.00
73860;BME280;62197;51.632;13.700;2023-02-14T06:14:03;102295.22;;;4.09;100.00
73860;BME280;62197;51.632;13.700;2023-02-14T06:16:28;102300.66;;;4.09;100.00
73860;BME280;62197;51.632;13.700;2023-02-14T06:18:53;102295.91;;;4.28;100.00
73860;BME280;62197;51.632;13.700;2023-02-14T06:21:18;102295.00;;;4.20;100.00
73860;BME280;62197;51.632;13.700;2023-02-14T06:23:44;102303.13;;;4.12;100.00
73860;BME280;62197;51.632;13.700;2023-02-14T06:26:09;102303.50;;;4.34;100.00
73860;BME280;62197;51.632;13.700;2023-02-14T06:28:35;102304.97;;;4.29;100.00
73860;BME280;62197;51.632;13.700;2023-02-14T06:31:00;102304.13;;;4.28;100.00
73860;BME280;62197;51.632;13.700;2023-02-14T06:33:25;102305.69;;;4.13;100.00
73860;BME280;62197;51.632;13.700;2023-02-14T06:35:52;102297.66;;;4.12;100.00
73860;BME280;62197;51.632;13.700;2023-02-14T06:38:18;102304.03;;;4.03;100.00
73860;BME280;62197;51.632;13.700;2023-02-14T06:40:43;102303.78;;;3.96;100.00
73860;BME280;62197;51.632;13.700;2023-02-14T06:43:08;102308.09;;;3.99;100.00
73860;BME280;62197;51.632;13.700;2023-02-14T06:45:34;102295.81;;;4.03;100.00
73860;BME280;62197;51.632;13.700;2023-02-14T06:47:59;102302.31;;;4.02;100.00
73860;BME280;62197;51.632;13.700;2023-02-14T06:50:24;102307.78;;;4.02;100.00
73860;BME280;62197;51.632;13.700;2023-02-14T06:52:50;102302.84;;;4.05;100.00
73860;BME280;62197;51.632;13.700;2023-02-14T06:55:16;102312.31;;;4.11;100.00
73860;BME280;62197;51.632;13.700;2023-02-14T06:57:41;102312.00;;;4.14;100.00
73860;BME280;62197;51.632;13.700;2023-02-14T07:00:07;102304.03;;;4.03;100.00
73860;BME280;62197;51.632;13.700;2023-02-14T07:02:34;102301.69;;;4.08;100.00
73860;BME280;62197;51.632;13.700;2023-02-14T07:04:59;102310.28;;;4.13;100.00
73860;BME280;62197;51.632;13.700;2023-02-14T07:07:24;102304.53;;;4.16;100.00
73860;BME280;62197;51.632;13.700;2023-02-14T07:09:50;102307.97;;;4.18;100.00
73860;BME280;62197;51.632;13.700;2023-02-14T07:12:16;102310.13;;;4.14;100.00
73860;BME280;62197;51.632;13.700;2023-02-14T07:14:41;102315.13;;;4.19;100.00
73860;BME280;62197;51.632;13.700;2023-02-14T07:17:06;102301.53;;;4.27;100.00
73860;BME280;62197;51.632;13.700;2023-02-14T07:19:32;102307.63;;;4.21;100.00
73860;BME280;62197;51.632;13.700;2023-02-14T07:21:57;102309.97;;;4.16;100.00
73860;BME280;62197;51.632;13.700;2023-02-14T07:24:22;102310.13;;;4.32;100.00
73860;BME280;62197;51.632;13.700;2023-02-14T07:26:48;102316.69;;;4.39;100.00
73860;BME280;62197;51.632;13.700;2023-02-14T07:29:13;102300.94;;;4.33;100.00
73860;BME280;62197;51.632;13.700;2023-02-14T07:31:38;102311.22;;;4.21;100.00
73860;BME280;62197;51.632;13.700;2023-02-14T07:34:04;102306.75;;;4.20;100.00
73860;BME280;62197;51.632;13.700;2023-02-14T07:36:29;102308.34;;;4.23;100.00
73860;BME280;62197;51.632;13.700;2023-02-14T07:38:55;102312.31;;;6.32;100.00
73860;BME280;62197;51.632;13.700;2023-02-14T07:41:20;102302.00;;;8.00;100.00
73860;BME280;62197;51.632;13.700;2023-02-14T07:43:45;102312.47;;;8.35;100.00
73860;BME280;62197;51.632;13.700;2023-02-14T07:46:11;102308.19;;;8.78;100.00
73860;BME280;62197;51.632;13.700;2023-02-14T07:48:36;102307.34;;;8.55;98.58
73860;BME280;62197;51.632;13.700;2023-02-14T07:51:03;102306.53;;;7.46;98.47
73860;BME280;62197;51.632;13.700;2023-02-14T07:53:28;102309.19;;;7.23;100.00
73860;BME280;62197;51.632;13.700;2023-02-14T07:55:53;102306.47;;;6.91;100.00
73860;BME280;62197;51.632;13.700;2023-02-14T07:58:19;102298.22;;;6.99;100.00
73860;BME280;62197;51.632;13.700;2023-02-14T08:00:44;102306.06;;;7.35;100.00
73860;BME280;62197;51.632;13.700;2023-02-14T08:03:11;102307.13;;;7.17;100.00
73860;BME280;62197;51.632;13.700;2023-02-14T08:05:36;102311.03;;;7.31;100.00
73860;BME280;62197;51.632;13.700;2023-02-14T08:08:01;102310.59;;;6.95;99.43
73860;BME280;62197;51.632;13.700;2023-02-14T08:10:27;102311.63;;;6.38;100.00
73860;BME280;62197;51.632;13.700;2023-02-14T08:12:52;102313.25;;;5.99;99.83
73860;BME280;62197;51.632;13.700;2023-02-14T08:15:23;102307.88;;;6.55;100.00
73860;BME280;62197;51.632;13.700;2023-02-14T08:18:07;102310.25;;;7.06;98.55
73860;BME280;62197;51.632;13.700;2023-02-14T08:20:32;102304.19;;;7.19;85.94
73860;BME280;62197;51.632;13.700;2023-02-14T08:22:58;102305.66;;;7.54;85.99
73860;BME280;62197;51.632;13.700;2023-02-14T08:25:23;102310.59;;;6.95;84.95
73860;BME280;62197;51.632;13.700;2023-02-14T08:27:48;102293.28;;;6.71;93.89
73860;BME280;62197;51.632;13.700;2023-02-14T08:30:13;102308.22;;;7.55;92.04
73860;BME280;62197;51.632;13.700;2023-02-14T08:32:39;102306.56;;;8.83;86.17
73860;BME280;62197;51.632;13.700;2023-02-14T08:35:04;102314.06;;;8.75;84.24
73860;BME280;62197;51.632;13.700;2023-02-14T08:37:29;102316.47;;;8.55;84.02
73860;BME280;62197;51.632;13.700;2023-02-14T08:39:55;102320.13;;;8.48;83.38
73860;BME280;62197;51.632;13.700;2023-02-14T08:42:20;102317.13;;;7.96;84.87
73860;BME280;62197;51.632;13.700;2023-02-14T08:44:45;102318.00;;;7.58;86.75
73860;BME280;62197;51.632;13.700;2023-02-14T08:47:11;102321.47;;;7.90;85.88
73860;BME280;62197;51.632;13.700;2023-02-14T08:49:36;102322.97;;;8.01;83.58
73860;BME280;62197;51.632;13.700;2023-02-14T08:52:01;102314.69;;;8.40;84.73
73860;BME280;62197;51.632;13.700;2023-02-14T08:54:26;102313.03;;;8.90;80.95
73860;BME280;62197;51.632;13.700;2023-02-14T08:56:52;102319.63;;;8.44;82.11
73860;BME280;62197;51.632;13.700;2023-02-14T08:59:17;102315.88;;;8.06;84.71
73860;BME280;62197;51.632;13.700;2023-02-14T09:01:42;102322.59;;;8.35;83.02
73860;BME280;62197;51.632;13.700;2023-02-14T09:04:07;102333.50;;;8.73;82.23
73860;BME280;62197;51.632;13.700;2023-02-14T09:06:32;102335.31;;;9.03;78.77
73860;BME280;62197;51.632;13.700;2023-02-14T09:09:01;102328.38;;;8.70;78.93
73860;BME280;62197;51.632;13.700;2023-02-14T09:11:26;102335.25;;;7.74;83.40
73860;BME280;62197;51.632;13.700;2023-02-14T09:13:51;102344.88;;;7.15;87.62
73860;BME280;62197;51.632;13.700;2023-02-14T09:16:17;102338.38;;;6.68;91.12
73860;BME280;62197;51.632;13.700;2023-02-14T09:18:44;102332.19;;;6.42;93.06
73860;BME280;62197;51.632;13.700;2023-02-14T09:21:12;102331.31;;;6.33;94.12
73860;BME280;62197;51.632;13.700;2023-02-14T09:23:38;102330.28;;;6.26;93.12
73860;BME280;62197;51.632;13.700;2023-02-14T09:26:04;102333.72;;;6.28;92.63
73860;BME280;62197;51.632;13.700;2023-02-14T09:28:30;102328.56;;;6.25;92.53
73860;BME280;62197;51.632;13.700;2023-02-14T09:30:55;102328.72;;;6.16;91.72
73860;BME280;62197;51.632;13.700;2023-02-14T09:33:21;102327.72;;;6.25;91.42
73860;BME280;62197;51.632;13.700;2023-02-14T09:35:46;102330.81;;;6.30;89.75
73860;BME280;62197;51.632;13.700;2023-02-14T09:38:30;102321.53;;;6.15;89.40
73860;BME280;62197;51.632;13.700;2023-02-14T09:40:55;102325.63;;;6.11;90.58
73860;BME280;62197;51.632;13.700;2023-02-14T09:43:29;102332.78;;;5.96;89.90
73860;BME280;62197;51.632;13.700;2023-02-14T09:46:01;102321.16;;;6.02;90.07
73860;BME280;62197;51.632;13.700;2023-02-14T09:48:31;102328.53;;;6.09;90.15
73860;BME280;62197;51.632;13.700;2023-02-14T09:51:02;102323.19;;;6.08;91.11
73860;BME280;62197;51.632;13.700;2023-02-14T09:53:50;102330.28;;;6.18;92.40
73860;BME280;62197;51.632;13.700;2023-02-14T09:56:18;102329.75;;;6.31;90.52
73860;BME280;62197;51.632;13.700;2023-02-14T09:59:09;102333.91;;;6.43;91.14
73860;BME280;62197;51.632;13.700;2023-02-14T10:01:42;102328.44;;;6.51;89.59
73860;BME280;62197;51.632;13.700;2023-02-14T10:07:03;102326.38;;;6.61;89.74
73860;BME280;62197;51.632;13.700;2023-02-14T10:09:58;102333.25;;;6.57;89.59
73860;BME280;62197;51.632;13.700;2023-02-14T10:12:31;102334.44;;;6.55;87.65
73860;BME280;62197;51.632;13.700;2023-02-14T10:15:03;102336.31;;;6.62;89.56
73860;BME280;62197;51.632;13.700;2023-02-14T10:17:43;102327.22;;;6.78;89.27
73860;BME280;62197;51.632;13.700;2023-02-14T10:23:21;102332.72;;;6.70;88.26
73860;BME280;62197;51.632;13.700;2023-02-14T10:28:26;102336.66;;;6.43;90.02
73860;BME280;62197;51.632;13.700;2023-02-14T10:33:56;102330.81;;;6.30;91.34
73860;BME280;62197;51.632;13.700;2023-02-14T10:36:30;102334.41;;;6.30;89.89
73860;BME280;62197;51.632;13.700;2023-02-14T10:41:55;102326.19;;;6.38;90.36
73860;BME280;62197;51.632;13.700;2023-02-14T10:44:47;102325.84;;;6.42;90.65
73860;BME280;62197;51.632;13.700;2023-02-14T10:47:27;102325.84;;;6.42;90.82
73860;BME280;62197;51.632;13.700;2023-02-14T10:50:06;102320.19;;;6.51;91.14
73860;BME280;62197;51.632;13.700;2023-02-14T10:52:37;102325.34;;;6.62;89.93
73860;BME280;62197;51.632;13.700;2023-02-14T10:55:12;102329.28;;;6.52;89.90
73860;BME280;62197;51.632;13.700;2023-02-14T10:57:44;102315.41;;;6.53;88.69
73860;BME280;62197;51.632;13.700;2023-02-14T11:00:25;102323.28;;;6.64;88.54
73860;BME280;62197;51.632;13.700;2023-02-14T11:02:59;102317.47;;;6.51;88.13
73860;BME280;62197;51.632;13.700;2023-02-14T11:05:48;102317.97;;;6.47;89.77
73860;BME280;62197;51.632;13.700;2023-02-14T11:10:49;102317.44;;;6.43;89.71
73860;BME280;62197;51.632;13.700;2023-02-14T11:13:27;102320.56;;;6.48;90.19
73860;BME280;62197;51.632;13.700;2023-02-14T11:15:57;102315.06;;;6.40;89.52
73860;BME280;62197;51.632;13.700;2023-02-14T11:18:25;102313.00;;;6.34;89.64
73860;BME280;62197;51.632;13.700;2023-02-14T11:23:35;102319.19;;;6.44;91.13
73860;BME280;62197;51.632;13.700;2023-02-14T11:26:02;102315.22;;;6.30;90.75
73860;BME280;62197;51.632;13.700;2023-02-14T11:28:30;102309.06;;;6.36;91.10
73860;BME280;62197;51.632;13.700;2023-02-14T11:30:55;102311.97;;;6.43;90.30
73860;BME280;62197;51.632;13.700;2023-02-14T11:33:22;102298.63;;;6.56;89.00
73860;BME280;62197;51.632;13.700;2023-02-14T11:35:53;102291.75;;;6.44;90.16
73860;BME280;62197;51.632;13.700;2023-02-14T11:38:23;102298.09;;;6.53;90.12
73860;BME280;62197;51.632;13.700;2023-02-14T11:40:53;102299.47;;;6.57;90.23
73860;BME280;62197;51.632;13.700;2023-02-14T11:43:32;102291.75;;;6.52;90.47
73860;BME280;62197;51.632;13.700;2023-02-14T11:48:32;102294.81;;;6.41;90.95
73860;BME280;62197;51.632;13.700;2023-02-14T11:51:06;102292.09;;;6.49;90.29
73860;BME280;62197;51.632;13.700;2023-02-14T11:53:44;102287.97;;;6.45;90.39
73860;BME280;62197;51.632;13.700;2023-02-14T11:56:12;102273.94;;;6.56;89.18
73860;BME280;62197;51.632;13.700;2023-02-14T11:58:41;102278.38;;;6.57;89.95
73860;BME280;62197;51.632;13.700;2023-02-14T12:01:11;102271.53;;;6.69;89.60
73860;BME280;62197;51.632;13.700;2023-02-14T12:03:45;102267.06;;;6.68;89.53
73860;BME280;62197;51.632;13.700;2023-02-14T12:06:12;102245.81;;;6.54;89.82
73860;BME280;62197;51.632;13.700;2023-02-14T12:08:47;102253.19;;;6.54;90.60
73860;BME280;62197;51.632;13.700;2023-02-14T12:11:21;102264.16;;;6.62;89.32
73860;BME280;62197;51.632;13.700;2023-02-14T12:13:53;102259.00;;;6.75;89.78
73860;BME280;62197;51.632;13.700;2023-02-14T12:16:33;102251.59;;;6.83;88.14
73860;BME280;62197;51.632;13.700;2023-02-14T12:19:05;102249.22;;;6.64;88.73
73860;BME280;62197;51.632;13.700;2023-02-14T12:21:57;102251.44;;;6.77;87.62
73860;BME280;62197;51.632;13.700;2023-02-14T12:24:34;102246.66;;;6.79;87.93
73860;BME280;62197;51.632;13.700;2023-02-14T12:27:05;102254.19;;;6.69;89.09
73860;BME280;62197;51.632;13.700;2023-02-14T12:29:42;102250.75;;;6.75;89.14
73860;BME280;62197;51.632;13.700;2023-02-14T12:32:26;102241.66;;;6.74;88.67
73860;BME280;62197;51.632;13.700;2023-02-14T12:35:29;102225.22;;;6.58;90.00
73860;BME280;62197;51.632;13.700;2023-02-14T12:38:08;102226.41;;;6.80;89.86
73860;BME280;62197;51.632;13.700;2023-02-14T12:43:46;102221.09;;;6.70;89.90
73860;BME280;62197;51.632;13.700;2023-02-14T12:46:25;102226.94;;;6.75;87.89
73860;BME280;62197;51.632;13.700;2023-02-14T13:00:03;102212.03;;;6.54;90.09
73860;BME280;62197;51.632;13.700;2023-02-14T13:05:42;102209.44;;;6.60;90.84
73860;BME280;62197;51.632;13.700;2023-02-14T13:11:08;102206.56;;;6.54;90.52
73860;BME280;62197;51.632;13.700;2023-02-14T13:14:04;102201.56;;;6.65;89.68
73860;BME280;62197;51.632;13.700;2023-02-14T13:16:55;102184.06;;;6.74;90.37
73860;BME280;62197;51.632;13.700;2023-02-14T13:19:46;102192.31;;;6.58;90.45
73860;BME280;62197;51.632;13.700;2023-02-14T13:22:20;102200.03;;;6.63;90.46
73860;BME280;62197;51.632;13.700;2023-02-14T13:24:47;102198.16;;;6.55;90.00
73860;BME280;62197;51.632;13.700;2023-02-14T13:27:26;102181.69;;;6.47;89.40
73860;BME280;62197;51.632;13.700;2023-02-14T13:30:00;102187.00;;;6.49;89.07
73860;BME280;62197;51.632;13.700;2023-02-14T13:32:39;102182.88;;;6.53;88.92
73860;BME280;62197;51.632;13.700;2023-02-14T13:35:06;102186.84;;;6.42;90.29
73860;BME280;62197;51.632;13.700;2023-02-14T13:37:32;102191.47;;;6.50;90.27
73860;BME280;62197;51.632;13.700;2023-02-14T13:40:16;102178.97;;;6.39;88.00
73860;BME280;62197;51.632;13.700;2023-02-14T13:48:16;102179.00;;;6.15;90.82
73860;BME280;62197;51.632;13.700;2023-02-14T13:50:57;102170.59;;;6.32;90.77
73860;BME280;62197;51.632;13.700;2023-02-14T13:53:44;102168.72;;;6.25;91.63
73860;BME280;62197;51.632;13.700;2023-02-14T13:58:58;102178.97;;;6.31;92.22
73860;BME280;62197;51.632;13.700;2023-02-14T14:01:39;102167.66;;;6.34;91.52
73860;BME280;62197;51.632;13.700;2023-02-14T14:17:35;102167.50;;;6.27;90.10
73860;BME280;62197;51.632;13.700;2023-02-14T14:20:05;102171.78;;;6.22;89.48
73860;BME280;62197;51.632;13.700;2023-02-14T14:22:50;102159.44;;;6.10;91.69
73860;BME280;62197;51.632;13.700;2023-02-14T14:25:33;102166.97;;;6.16;91.87
73860;BME280;62197;51.632;13.700;2023-02-14T14:28:06;102156.00;;;6.16;91.86
73860;BME280;62197;51.632;13.700;2023-02-14T14:30:34;102169.72;;;6.24;91.61